TimeEDT,TemperatureF,Dew PointF,Humidity,Sea Level PressureIn,VisibilityMPH,Wind Direction,Wind SpeedMPH,Gust SpeedMPH,PrecipitationIn,Events,Conditions,WindDirDegrees,DateUTC
12:56 AM,77.0,73.0,88,29.71,10.0,SW,16.1,26.5,N/A,,Mostly Cloudy,220,2013-06-28 04:56:00
1:56 AM,77.0,73.0,88,29.70,10.0,SSW,13.8,-,N/A,,Mostly Cloudy,210,2013-06-28 05:56:00
2:56 AM,75.9,73.0,91,29.68,10.0,SW,13.8,-,N/A,,Overcast,220,2013-06-28 06:56:00
3:08 AM,75.2,73.4,94,29.67,10.0,SSW,17.3,-,N/A,,Overcast,210,2013-06-28 07:08:00
3:56 AM,75.9,73.9,94,29.67,10.0,SW,13.8,-,N/A,,Mostly Cloudy,220,2013-06-28 07:56:00
4:56 AM,77.0,73.9,90,29.65,10.0,SW,12.7,20.7,N/A,,Overcast,220,2013-06-28 08:56:00
5:56 AM,77.0,75.0,94,29.65,10.0,SW,8.1,-,N/A,,Overcast,230,2013-06-28 09:56:00
6:56 AM,77.0,75.0,94,29.68,10.0,WSW,10.4,-,N/A,,Mostly Cloudy,250,2013-06-28 10:56:00
7:56 AM,78.1,75.0,90,29.68,10.0,SW,12.7,-,N/A,,Mostly Cloudy,230,2013-06-28 11:56:00
8:56 AM,81.0,75.0,82,29.66,10.0,SW,16.1,-,N/A,,Mostly Cloudy,220,2013-06-28 12:56:00
9:56 AM,84.0,73.9,72,29.65,10.0,SW,15.0,-,N/A,,Scattered Clouds,230,2013-06-28 13:56:00
10:56 AM,86.0,73.0,65,29.65,10.0,WSW,16.1,21.9,N/A,,Scattered Clouds,240,2013-06-28 14:56:00
11:56 AM,88.0,73.9,63,29.64,10.0,SW,12.7,21.9,N/A,,Scattered Clouds,220,2013-06-28 15:56:00
12:56 PM,90.0,73.0,57,29.63,10.0,WSW,16.1,-,N/A,,Scattered Clouds,250,2013-06-28 16:56:00
1:56 PM,91.0,71.1,52,29.62,10.0,WSW,16.1,21.9,N/A,,Scattered Clouds,250,2013-06-28 17:56:00
2:56 PM,91.9,71.1,50,29.60,10.0,SW,15.0,-,N/A,,Scattered Clouds,230,2013-06-28 18:56:00
3:56 PM,91.9,66.9,44,29.58,10.0,SW,15.0,20.7,N/A,,Scattered Clouds,220,2013-06-28 19:56:00
4:56 PM,91.9,69.1,47,29.57,10.0,SW,12.7,19.6,N/A,,Scattered Clouds,230,2013-06-28 20:56:00
5:56 PM,90.0,69.1,50,29.57,10.0,SW,13.8,-,N/A,,Mostly Cloudy,220,2013-06-28 21:56:00
6:56 PM,88.0,70.0,55,29.57,10.0,SW,10.4,-,N/A,,Mostly Cloudy,220,2013-06-28 22:56:00
7:49 PM,87.8,71.6,58,29.57,10.0,SSW,16.1,20.7,N/A,,Mostly Cloudy,210,2013-06-28 23:49:00
7:56 PM,87.1,71.1,59,29.58,10.0,SSW,12.7,20.7,N/A,,Mostly Cloudy,210,2013-06-28 23:56:00
8:37 PM,86.0,73.4,66,29.58,10.0,SSW,13.8,-,0.00,Rain,Light Rain,200,2013-06-29 00:37:00
8:56 PM,82.9,75.9,79,29.58,9.0,SW,13.8,-,0.01,Rain-Thunderstorm,Light Thunderstorms and Rain,220,2013-06-29 00:56:00
9:26 PM,80.6,77.0,89,29.57,9.0,WSW,9.2,-,0.03,Rain,Light Rain,240,2013-06-29 01:26:00
9:56 PM,78.1,75.0,90,29.60,10.0,WSW,15.0,-,0.04,Rain,Light Rain,240,2013-06-29 01:56:00
10:32 PM,75.2,69.8,83,29.60,10.0,SW,20.7,26.5,0.00,,Overcast,220,2013-06-29 02:32:00
10:56 PM,75.0,71.1,87,29.61,10.0,SW,13.8,-,0.00,,Overcast,220,2013-06-29 02:56:00
11:56 PM,75.9,69.1,79,29.61,10.0,SW,16.1,25.3,N/A,,Overcast,230,2013-06-29 03:56:00